Time;durP1;ratioP1;P1;durP2;ratioP2;P2;SDS_P1;SDS_P2;PMS_P1;PMS_P2;Temp;Humidity;BMP_temperature;BMP_pressure;BME280_temperature;BME280_humidity;BME280_pressure;Samples;Min_cycle;Max_cycle;Signal;HPM_P1;HPM_P2
2023/12/18 00:00:19;;;;;;;0.20;0.20;;;;;;;;;;6244486;23;20018;-93
2023/12/18 00:02:45;;;;;;;0.40;0.40;;;;;;;;;;6247668;23;20074;-93
2023/12/18 00:05:11;;;;;;;0.30;0.30;;;;;;;;;;6216458;22;20006;-93
2023/12/18 00:07:37;;;;;;;0.40;0.40;;;;;;;;;;6221475;22;20017;-92
2023/12/18 00:10:03;;;;;;;0.20;0.20;;;;;;;;;;6223350;23;20022;-93
2023/12/18 00:22:59;;;;;;;0.30;0.30;;;;;;;;;;6268037;22;20024;-91
2023/12/18 00:30:39;;;;;;;0.60;0.55;;;;;;;;;;6271330;22;20028;-93
2023/12/18 00:33:05;;;;;;;0.30;0.30;;;;;;;;;;6216325;23;20039;-92
2023/12/18 00:38:07;;;;;;;0.40;0.40;;;;;;;;;;6251793;22;20024;-92
2023/12/18 00:43:09;;;;;;;0.50;0.50;;;;;;;;;;6255832;22;20050;-90
2023/12/18 00:45:35;;;;;;;0.40;0.40;;;;;;;;;;6224814;22;20031;-94
2023/12/18 00:48:01;;;;;;;0.40;0.40;;;;;;;;;;6230112;22;20026;-92
2023/12/18 00:50:27;;;;;;;0.40;0.40;;;;;;;;;;6215353;22;20010;-92
2023/12/18 00:55:35;;;;;;;0.30;0.30;;;;;;;;;;6237445;22;20031;-93
2023/12/18 00:58:01;;;;;;;0.40;0.40;;;;;;;;;;6212508;23;20036;-92
2023/12/18 01:00:34;;;;;;;0.30;0.30;;;;;;;;;;6234066;22;20028;-91
2023/12/18 01:16:00;;;;;;;0.30;0.30;;;;;;;;;;6247106;22;20015;-91
2023/12/18 01:18:27;;;;;;;0.30;0.30;;;;;;;;;;6258790;22;20004;-94
2023/12/18 01:20:53;;;;;;;0.40;0.40;;;;;;;;;;6251056;22;20043;-94
2023/12/18 01:23:23;;;;;;;0.40;0.40;;;;;;;;;;6268322;23;20020;-93
2023/12/18 01:25:50;;;;;;;0.40;0.40;;;;;;;;;;6243768;23;20008;-93
2023/12/18 01:28:19;;;;;;;0.30;0.30;;;;;;;;;;6269076;22;20028;-93
2023/12/18 01:38:33;;;;;;;0.40;0.40;;;;;;;;;;6240158;22;20056;-93
2023/12/18 01:40:59;;;;;;;0.40;0.40;;;;;;;;;;6212900;23;20024;-92
2023/12/18 01:43:28;;;;;;;0.40;0.40;;;;;;;;;;6237418;23;20032;-93
2023/12/18 01:45:59;;;;;;;0.40;0.40;;;;;;;;;;6238255;23;20004;-93
2023/12/18 01:48:25;;;;;;;0.30;0.30;;;;;;;;;;6214825;23;20020;-93
2023/12/18 01:56:06;;;;;;;0.40;0.40;;;;;;;;;;6266305;22;19947;-92
2023/12/18 01:58:33;;;;;;;0.82;0.82;;;;;;;;;;6248226;22;20039;-92
2023/12/18 02:01:00;;;;;;;0.30;0.30;;;;;;;;;;6248180;22;20023;-94
2023/12/18 02:03:30;;;;;;;0.40;0.40;;;;;;;;;;6247734;22;20022;-94
2023/12/18 02:11:08;;;;;;;0.38;0.38;;;;;;;;;;6267041;22;20051;-94
2023/12/18 02:13:34;;;;;;;0.40;0.40;;;;;;;;;;6243105;23;20020;-92
2023/12/18 02:16:00;;;;;;;0.30;0.30;;;;;;;;;;6242770;23;20012;-93
2023/12/18 02:18:33;;;;;;;0.40;0.40;;;;;;;;;;6248136;22;20042;-92
2023/12/18 02:28:50;;;;;;;0.40;0.40;;;;;;;;;;6266581;22;20020;-90
2023/12/18 02:31:18;;;;;;;0.40;0.40;;;;;;;;;;6268225;23;20016;-91
2023/12/18 02:33:48;;;;;;;0.40;0.40;;;;;;;;;;6242453;22;20023;-91
2023/12/18 02:36:29;;;;;;;0.40;0.40;;;;;;;;;;6267850;23;20024;-92
2023/12/18 02:38:56;;;;;;;0.40;0.40;;;;;;;;;;6227396;22;20020;-92
2023/12/18 02:41:21;;;;;;;0.30;0.30;;;;;;;;;;6212154;23;20020;-93
2023/12/18 02:43:48;;;;;;;0.38;0.38;;;;;;;;;;6212948;23;20013;-94
2023/12/18 02:59:20;;;;;;;0.40;0.40;;;;;;;;;;6197777;22;1608606;-93
2023/12/18 03:10:13;;;;;;;0.30;0.30;;;;;;;;;;6244212;22;20031;-91
2023/12/18 03:25:38;;;;;;;0.30;0.30;;;;;;;;;;6267479;22;20028;-94
2023/12/18 03:30:39;;;;;;;0.40;0.40;;;;;;;;;;6222268;22;20044;-93
2023/12/18 03:35:44;;;;;;;0.32;0.32;;;;;;;;;;6293779;22;20091;-91
2023/12/18 03:40:46;;;;;;;0.40;0.40;;;;;;;;;;6265496;22;20084;-91
2023/12/18 03:43:12;;;;;;;0.30;0.30;;;;;;;;;;6240436;23;20027;-92
2023/12/18 03:45:38;;;;;;;0.30;0.30;;;;;;;;;;6243101;23;20023;-91
2023/12/18 03:50:41;;;;;;;0.32;0.32;;;;;;;;;;6261139;22;20075;-93
2023/12/18 03:53:08;;;;;;;0.40;0.40;;;;;;;;;;6260149;22;20111;-94
2023/12/18 03:55:34;;;;;;;1.05;0.95;;;;;;;;;;6241749;23;20050;-92
2023/12/18 03:58:02;;;;;;;0.30;0.30;;;;;;;;;;6241973;23;20012;-93
2023/12/18 04:00:28;;;;;;;0.40;0.40;;;;;;;;;;6241695;23;20020;-92
2023/12/18 04:10:41;;;;;;;0.40;0.40;;;;;;;;;;6267895;22;20040;-91
2023/12/18 04:13:08;;;;;;;0.38;0.38;;;;;;;;;;6266370;22;20021;-92
2023/12/18 04:31:10;;;;;;;0.40;0.40;;;;;;;;;;6286010;22;20051;-93
2023/12/18 04:33:41;;;;;;;0.32;0.32;;;;;;;;;;6248492;22;20058;-92
2023/12/18 04:36:16;;;;;;;0.40;0.40;;;;;;;;;;6276280;22;20024;-93
2023/12/18 04:38:43;;;;;;;0.50;0.50;;;;;;;;;;6250958;22;20035;-93
2023/12/18 04:46:20;;;;;;;0.35;0.35;;;;;;;;;;6265493;22;20031;-92
2023/12/18 04:54:00;;;;;;;0.30;0.30;;;;;;;;;;6238778;22;20017;-91
2023/12/18 05:09:36;;;;;;;0.35;0.35;;;;;;;;;;6250843;22;20020;-93
2023/12/18 05:17:23;;;;;;;0.20;0.20;;;;;;;;;;6270665;22;20080;-92
2023/12/18 05:28:28;;;;;;;0.30;0.30;;;;;;;;;;6272117;22;20024;-91
2023/12/18 05:36:08;;;;;;;0.40;0.40;;;;;;;;;;6237272;22;20024;-93
2023/12/18 05:51:35;;;;;;;0.30;0.30;;;;;;;;;;6241919;22;20048;-95
2023/12/18 05:54:04;;;;;;;0.40;0.40;;;;;;;;;;6212710;22;20020;-91
2023/12/18 05:56:30;;;;;;;0.32;0.32;;;;;;;;;;6267654;22;20054;-91
2023/12/18 05:58:57;;;;;;;0.30;0.30;;;;;;;;;;6242720;23;20044;-93
2023/12/18 06:01:26;;;;;;;0.30;0.30;;;;;;;;;;6251547;22;20032;-92
2023/12/18 06:09:07;;;;;;;0.40;0.40;;;;;;;;;;6264324;22;20016;-92
2023/12/18 06:14:09;;;;;;;0.40;0.40;;;;;;;;;;6262582;22;20087;-91
2023/12/18 06:16:35;;;;;;;0.38;0.38;;;;;;;;;;6242372;23;20024;-94
2023/12/18 06:21:44;;;;;;;0.40;0.40;;;;;;;;;;6270096;22;20044;-92
2023/12/18 06:31:58;;;;;;;0.40;0.40;;;;;;;;;;6239301;22;20024;-93
2023/12/18 06:34:24;;;;;;;0.40;0.40;;;;;;;;;;6268227;22;20342;-92
2023/12/18 06:42:02;;;;;;;0.40;0.40;;;;;;;;;;6253671;22;20032;-93
2023/12/18 06:44:28;;;;;;;0.30;0.30;;;;;;;;;;6246142;22;20023;-91
2023/12/18 06:46:54;;;;;;;0.30;0.30;;;;;;;;;;6236931;22;20079;-93
2023/12/18 06:51:56;;;;;;;0.35;0.35;;;;;;;;;;6269717;22;20020;-90
2023/12/18 06:54:22;;;;;;;0.40;0.40;;;;;;;;;;6241846;23;20046;-93
2023/12/18 06:56:48;;;;;;;0.30;0.30;;;;;;;;;;6242890;23;20039;-93
2023/12/18 06:59:14;;;;;;;0.30;0.30;;;;;;;;;;6242502;23;20031;-91
2023/12/18 07:01:40;;;;;;;0.30;0.30;;;;;;;;;;6229611;22;20031;-92
2023/12/18 07:19:39;;;;;;;0.30;0.30;;;;;;;;;;6288451;22;20026;-92
2023/12/18 07:27:21;;;;;;;0.30;0.30;;;;;;;;;;6157096;22;20041;-93
2023/12/18 07:29:53;;;;;;;0.40;0.40;;;;;;;;;;6191924;22;20003;-92
2023/12/18 07:32:38;;;;;;;0.40;0.40;;;;;;;;;;6247432;22;20083;-94
2023/12/18 07:40:16;;;;;;;0.40;0.40;;;;;;;;;;6131352;22;20012;-93
2023/12/18 07:58:17;;;;;;;0.40;0.40;;;;;;;;;;6226199;22;20031;-89
2023/12/18 08:00:44;;;;;;;0.30;0.30;;;;;;;;;;6279925;22;20015;-90
2023/12/18 08:03:11;;;;;;;0.47;0.47;;;;;;;;;;6279102;22;20030;-89
2023/12/18 08:08:13;;;;;;;0.40;0.40;;;;;;;;;;6220510;22;20035;-90
2023/12/18 08:10:44;;;;;;;0.40;0.40;;;;;;;;;;6243478;23;20020;-92
2023/12/18 08:13:13;;;;;;;0.40;0.40;;;;;;;;;;6249251;23;20026;-89
2023/12/18 08:15:39;;;;;;;0.70;0.70;;;;;;;;;;6245495;23;20022;-89
2023/12/18 08:18:05;;;;;;;0.20;0.20;;;;;;;;;;6247046;23;20051;-89
2023/12/18 08:25:43;;;;;;;0.30;0.30;;;;;;;;;;6140218;22;19945;-92
2023/12/18 08:30:45;;;;;;;0.40;0.40;;;;;;;;;;6099121;22;20033;-90
2023/12/18 08:33:48;;;;;;;0.40;0.40;;;;;;;;;;6282632;22;20019;-94
2023/12/18 08:38:50;;;;;;;1.85;1.40;;;;;;;;;;6272944;22;20050;-91
2023/12/18 08:41:31;;;;;;;0.50;0.50;;;;;;;;;;6246873;22;20056;-92
2023/12/18 08:44:24;;;;;;;0.30;0.30;;;;;;;;;;6269113;23;20020;-85
2023/12/18 08:46:52;;;;;;;0.40;0.40;;;;;;;;;;6270508;23;20262;-85
2023/12/18 08:49:18;;;;;;;0.40;0.40;;;;;;;;;;6268655;23;20016;-86
2023/12/18 08:54:27;;;;;;;0.35;0.35;;;;;;;;;;6147224;22;20049;-84
2023/12/18 08:57:03;;;;;;;0.50;0.50;;;;;;;;;;6062611;23;20029;-85
2023/12/18 08:59:28;;;;;;;0.40;0.40;;;;;;;;;;6086130;23;20026;-86
2023/12/18 09:01:55;;;;;;;0.40;0.40;;;;;;;;;;6085436;23;20298;-87
2023/12/18 09:04:20;;;;;;;0.30;0.30;;;;;;;;;;6111723;22;20228;-86
2023/12/18 09:06:47;;;;;;;0.68;0.68;;;;;;;;;;6081939;23;20023;-86
2023/12/18 09:09:13;;;;;;;0.40;0.40;;;;;;;;;;6058197;23;20056;-86
2023/12/18 09:12:05;;;;;;;0.40;0.40;;;;;;;;;;6067878;22;20035;-85
2023/12/18 09:14:36;;;;;;;0.40;0.40;;;;;;;;;;6111591;23;20018;-87
2023/12/18 09:17:03;;;;;;;0.38;0.38;;;;;;;;;;6065069;23;20018;-87
2023/12/18 09:19:32;;;;;;;4.32;1.30;;;;;;;;;;6067932;23;20018;-87
2023/12/18 09:22:05;;;;;;;0.40;0.40;;;;;;;;;;6068650;23;20088;-87
2023/12/18 09:24:32;;;;;;;0.40;0.40;;;;;;;;;;6120461;22;20026;-85
2023/12/18 09:27:00;;;;;;;0.40;0.40;;;;;;;;;;6086195;23;20030;-86
2023/12/18 09:29:37;;;;;;;0.40;0.40;;;;;;;;;;6112447;23;20015;-87
2023/12/18 09:32:03;;;;;;;0.40;0.40;;;;;;;;;;6064575;23;19998;-85
2023/12/18 09:34:32;;;;;;;0.30;0.30;;;;;;;;;;6110432;23;20015;-86
2023/12/18 09:36:59;;;;;;;0.30;0.30;;;;;;;;;;6069008;23;20471;-86
2023/12/18 09:42:33;;;;;;;0.40;0.40;;;;;;;;;;6120370;22;20082;-87
2023/12/18 09:45:25;;;;;;;0.30;0.30;;;;;;;;;;6152672;22;20000;-89
2023/12/18 09:51:17;;;;;;;0.30;0.30;;;;;;;;;;6309864;22;20056;-85
2023/12/18 09:53:49;;;;;;;0.40;0.40;;;;;;;;;;6295990;22;20095;-87
2023/12/18 09:56:15;;;;;;;0.40;0.40;;;;;;;;;;6297621;22;20012;-85
2023/12/18 09:58:44;;;;;;;0.40;0.40;;;;;;;;;;6294524;22;20019;-87
2023/12/18 10:01:10;;;;;;;0.30;0.30;;;;;;;;;;6275915;22;20011;-87
2023/12/18 10:04:06;;;;;;;0.30;0.30;;;;;;;;;;6272886;22;20019;-86
2023/12/18 10:06:45;;;;;;;0.30;0.30;;;;;;;;;;6270971;22;20023;-87
2023/12/18 10:12:32;;;;;;;0.30;0.30;;;;;;;;;;6297557;22;20031;-87
2023/12/18 10:15:11;;;;;;;0.32;0.32;;;;;;;;;;6272096;22;20015;-90
2023/12/18 10:17:57;;;;;;;0.30;0.30;;;;;;;;;;6275153;22;20020;-86
2023/12/18 10:20:38;;;;;;;0.40;0.40;;;;;;;;;;6271407;22;20019;-87
2023/12/18 10:23:07;;;;;;;0.38;0.38;;;;;;;;;;6297501;22;20043;-84
2023/12/18 10:25:38;;;;;;;0.30;0.30;;;;;;;;;;6301135;22;20000;-84
2023/12/18 10:28:06;;;;;;;0.22;0.22;;;;;;;;;;6272320;22;20004;-85
2023/12/18 10:30:34;;;;;;;0.30;0.30;;;;;;;;;;6249408;22;20011;-87
2023/12/18 10:33:05;;;;;;;0.40;0.40;;;;;;;;;;6298900;22;20019;-86
2023/12/18 10:42:06;;;;;;;0.50;0.50;;;;;;;;;;6292403;22;20051;-85
2023/12/18 10:44:43;;;;;;;0.40;0.40;;;;;;;;;;6269465;22;20019;-85
2023/12/18 10:47:42;;;;;;;0.30;0.30;;;;;;;;;;6274060;22;20011;-87
2023/12/18 10:57:28;;;;;;;0.40;0.40;;;;;;;;;;6313091;22;20014;-87
2023/12/18 11:03:52;;;;;;;0.30;0.30;;;;;;;;;;6310718;22;20076;-88
2023/12/18 11:09:52;;;;;;;0.40;0.40;;;;;;;;;;6313833;22;20042;-88
2023/12/18 11:22:04;;;;;;;0.40;0.40;;;;;;;;;;6264842;22;20024;-87
2023/12/18 11:30:06;;;;;;;0.40;0.40;;;;;;;;;;6243328;22;20032;-91
2023/12/18 11:32:45;;;;;;;0.30;0.30;;;;;;;;;;6231855;22;20016;-91
2023/12/18 11:35:12;;;;;;;0.30;0.30;;;;;;;;;;6239540;22;20034;-92
2023/12/18 11:37:44;;;;;;;0.40;0.40;;;;;;;;;;6217314;22;20023;-92
2023/12/18 11:40:36;;;;;;;0.30;0.30;;;;;;;;;;6276982;22;20034;-91
2023/12/18 11:46:20;;;;;;;0.38;0.38;;;;;;;;;;6278773;22;20092;-91
2023/12/18 11:48:52;;;;;;;0.30;0.30;;;;;;;;;;6245890;22;20011;-92
2023/12/18 12:26:29;;;;;;;0.30;0.30;;;;;;;;;;6240155;23;20012;-90
2023/12/18 12:29:24;;;;;;;0.30;0.30;;;;;;;;;;6222887;23;20027;-91
2023/12/18 12:31:51;;;;;;;0.40;0.40;;;;;;;;;;6208485;22;20747;-91
2023/12/18 12:34:17;;;;;;;0.40;0.40;;;;;;;;;;6249320;22;20024;-92
2023/12/18 12:39:42;;;;;;;0.35;0.35;;;;;;;;;;6273071;22;20015;-89
2023/12/18 12:47:24;;;;;;;0.30;0.30;;;;;;;;;;6244361;22;20012;-88
2023/12/18 12:52:28;;;;;;;0.28;0.28;;;;;;;;;;6273079;22;20035;-90
2023/12/18 12:57:38;;;;;;;0.50;0.50;;;;;;;;;;6273555;22;20078;-90
2023/12/18 13:00:12;;;;;;;0.38;0.38;;;;;;;;;;6269507;22;20027;-91
2023/12/18 13:05:16;;;;;;;0.30;0.30;;;;;;;;;;6269741;22;20012;-90
2023/12/18 13:07:43;;;;;;;0.40;0.40;;;;;;;;;;6189211;22;20008;-91
2023/12/18 13:10:10;;;;;;;0.35;0.35;;;;;;;;;;6274044;22;20020;-92
2023/12/18 13:15:12;;;;;;;0.30;0.30;;;;;;;;;;6267530;22;20032;-93
2023/12/18 13:17:38;;;;;;;0.30;0.30;;;;;;;;;;6249424;22;20046;-90
2023/12/18 13:22:40;;;;;;;0.40;0.40;;;;;;;;;;6239147;23;20040;-93
2023/12/18 13:25:41;;;;;;;0.30;0.30;;;;;;;;;;6216656;23;20016;-90
2023/12/18 13:28:13;;;;;;;0.40;0.40;;;;;;;;;;6190985;23;20004;-91
2023/12/18 13:56:43;;;;;;;0.40;0.40;;;;;;;;;;6245071;22;20057;-91
2023/12/18 14:53:50;;;;;;;0.30;0.30;;;;;;;;;;6239617;22;20032;-90
2023/12/18 15:01:45;;;;;;;0.30;0.30;;;;;;;;;;6244744;22;20032;-90
2023/12/18 15:04:13;;;;;;;0.30;0.30;;;;;;;;;;6267171;22;20023;-90
2023/12/18 15:06:40;;;;;;;0.30;0.30;;;;;;;;;;6268200;23;20020;-90
2023/12/18 15:17:22;;;;;;;0.40;0.40;;;;;;;;;;6233458;22;20024;-90
2023/12/18 15:24:59;;;;;;;0.30;0.30;;;;;;;;;;6282089;22;20023;-89
2023/12/18 15:27:25;;;;;;;0.40;0.40;;;;;;;;;;6271962;22;20015;-91
2023/12/18 15:35:03;;;;;;;0.30;0.30;;;;;;;;;;6268448;22;20024;-90
2023/12/18 15:45:17;;;;;;;0.38;0.38;;;;;;;;;;6260720;22;20050;-89
2023/12/18 15:52:54;;;;;;;0.30;0.30;;;;;;;;;;6251468;22;19915;-90
2023/12/18 15:55:20;;;;;;;0.30;0.30;;;;;;;;;;6240064;23;20034;-92
2023/12/18 15:57:46;;;;;;;0.30;0.30;;;;;;;;;;6239187;23;20016;-89
2023/12/18 16:00:13;;;;;;;0.30;0.30;;;;;;;;;;6240925;23;20039;-91
2023/12/18 16:13:02;;;;;;;0.40;0.40;;;;;;;;;;6234233;22;20236;-90
2023/12/18 16:18:06;;;;;;;0.22;0.22;;;;;;;;;;6241016;22;20013;-90
2023/12/18 16:41:20;;;;;;;0.30;0.30;;;;;;;;;;6256215;22;20087;-86
2023/12/18 16:43:51;;;;;;;0.40;0.40;;;;;;;;;;6247994;22;20007;-86
2023/12/18 16:46:17;;;;;;;0.40;0.40;;;;;;;;;;6300025;22;20000;-87
2023/12/18 16:56:38;;;;;;;0.30;0.30;;;;;;;;;;6268372;22;20031;-85
2023/12/18 17:01:52;;;;;;;0.40;0.40;;;;;;;;;;6237528;22;20031;-85
2023/12/18 17:05:15;;;;;;;0.32;0.32;;;;;;;;;;6244352;23;20039;-87
2023/12/18 17:08:07;;;;;;;0.30;0.30;;;;;;;;;;6244935;23;20005;-87
2023/12/18 17:13:19;;;;;;;0.40;0.40;;;;;;;;;;6228578;22;20080;-86
2023/12/18 17:15:45;;;;;;;0.60;0.60;;;;;;;;;;6236537;23;20032;-87
2023/12/18 17:21:01;;;;;;;0.30;0.30;;;;;;;;;;6263550;22;20028;-89
2023/12/18 17:26:50;;;;;;;0.30;0.30;;;;;;;;;;6273896;22;20026;-86
2023/12/18 17:29:18;;;;;;;0.30;0.30;;;;;;;;;;6245919;23;20024;-87
2023/12/18 17:35:08;;;;;;;0.60;0.60;;;;;;;;;;6279521;23;20026;-87
2023/12/18 17:37:34;;;;;;;0.40;0.40;;;;;;;;;;6240634;23;20454;-87
2023/12/18 17:53:29;;;;;;;0.40;0.40;;;;;;;;;;6266212;22;20024;-86
2023/12/18 17:56:04;;;;;;;0.40;0.40;;;;;;;;;;6259540;23;20012;-88
2023/12/18 17:58:39;;;;;;;0.30;0.30;;;;;;;;;;6249850;22;20004;-86
2023/12/18 18:01:43;;;;;;;0.40;0.40;;;;;;;;;;6269635;22;20047;-84
2023/12/18 18:04:09;;;;;;;0.40;0.40;;;;;;;;;;6258194;23;20013;-84
2023/12/18 18:06:39;;;;;;;0.30;0.30;;;;;;;;;;6233035;23;20016;-85
2023/12/18 18:09:05;;;;;;;0.30;0.30;;;;;;;;;;6259055;23;20043;-88
2023/12/18 18:11:31;;;;;;;0.30;0.30;;;;;;;;;;6232329;23;20363;-86
2023/12/18 18:14:02;;;;;;;0.28;0.28;;;;;;;;;;6232101;23;20016;-88
2023/12/18 18:16:28;;;;;;;0.30;0.30;;;;;;;;;;6256750;23;20020;-85
2023/12/18 18:18:54;;;;;;;0.30;0.30;;;;;;;;;;6257130;23;20027;-85
2023/12/18 18:21:20;;;;;;;0.55;0.55;;;;;;;;;;6257603;23;20026;-87
2023/12/18 18:23:48;;;;;;;0.30;0.30;;;;;;;;;;6230744;23;20091;-87
2023/12/18 18:26:36;;;;;;;0.30;0.30;;;;;;;;;;6260896;23;20042;-85
2023/12/18 18:29:17;;;;;;;0.40;0.40;;;;;;;;;;6235863;22;20020;-89
2023/12/18 18:31:44;;;;;;;0.30;0.30;;;;;;;;;;6236589;22;20050;-85
2023/12/18 18:34:10;;;;;;;0.40;0.40;;;;;;;;;;6266182;22;20086;-85
2023/12/18 18:36:44;;;;;;;0.30;0.30;;;;;;;;;;6242810;22;20019;-83
2023/12/18 18:39:10;;;;;;;0.30;0.30;;;;;;;;;;6237369;22;20016;-86
2023/12/18 18:41:36;;;;;;;0.20;0.20;;;;;;;;;;6238400;22;20041;-86
2023/12/18 18:44:22;;;;;;;0.30;0.30;;;;;;;;;;6266456;22;20020;-87
2023/12/18 18:46:48;;;;;;;0.30;0.30;;;;;;;;;;6261645;22;20050;-87
2023/12/18 18:54:26;;;;;;;0.30;0.30;;;;;;;;;;6259140;22;20248;-86
2023/12/18 18:56:54;;;;;;;0.40;0.40;;;;;;;;;;6235936;23;20064;-86
2023/12/18 18:59:43;;;;;;;0.30;0.30;;;;;;;;;;6268254;22;20011;-86
2023/12/18 19:05:53;;;;;;;0.40;0.40;;;;;;;;;;6285017;22;20027;-85
2023/12/18 19:08:55;;;;;;;0.30;0.30;;;;;;;;;;6263073;22;20023;-86
2023/12/18 19:14:33;;;;;;;0.30;0.30;;;;;;;;;;6261975;22;20110;-85
2023/12/18 19:17:03;;;;;;;0.40;0.40;;;;;;;;;;6232536;23;20042;-86
2023/12/18 19:19:30;;;;;;;0.30;0.30;;;;;;;;;;6263560;23;20023;-86
2023/12/18 19:21:56;;;;;;;0.40;0.40;;;;;;;;;;6237587;23;20004;-88
2023/12/18 19:24:22;;;;;;;0.30;0.30;;;;;;;;;;6258739;23;20062;-86
2023/12/18 19:26:48;;;;;;;0.40;0.40;;;;;;;;;;6258805;23;20020;-87
2023/12/18 19:32:24;;;;;;;0.38;0.38;;;;;;;;;;6278911;22;20031;-87
2023/12/18 19:34:50;;;;;;;0.30;0.30;;;;;;;;;;6237711;23;20016;-85
2023/12/18 19:37:46;;;;;;;0.40;0.40;;;;;;;;;;6272970;22;20008;-86
2023/12/18 19:40:13;;;;;;;0.40;0.40;;;;;;;;;;6247156;23;20019;-87
2023/12/18 19:42:39;;;;;;;0.40;0.40;;;;;;;;;;6232402;23;20016;-84
2023/12/18 19:45:47;;;;;;;0.63;0.63;;;;;;;;;;6271549;22;20015;-84
2023/12/18 19:48:29;;;;;;;0.40;0.40;;;;;;;;;;6269226;22;20016;-86
2023/12/18 19:56:24;;;;;;;0.40;0.40;;;;;;;;;;6252964;22;20020;-88
2023/12/18 19:59:23;;;;;;;0.30;0.30;;;;;;;;;;6227124;23;20027;-88
2023/12/18 20:01:49;;;;;;;0.40;0.40;;;;;;;;;;6203717;23;20020;-84
2023/12/18 20:04:32;;;;;;;0.40;0.40;;;;;;;;;;6245534;23;20023;-84
2023/12/18 20:06:59;;;;;;;0.50;0.50;;;;;;;;;;6232962;23;20016;-84
2023/12/18 20:09:26;;;;;;;0.82;0.77;;;;;;;;;;6231623;23;20473;-88
2023/12/18 20:11:52;;;;;;;0.40;0.40;;;;;;;;;;6206386;23;20026;-89
2023/12/18 20:14:36;;;;;;;0.40;0.40;;;;;;;;;;6213290;23;20000;-85
2023/12/18 20:17:24;;;;;;;0.40;0.40;;;;;;;;;;6253544;23;20016;-85
2023/12/18 20:22:26;;;;;;;0.30;0.30;;;;;;;;;;6262639;22;20024;-86
2023/12/18 20:24:52;;;;;;;0.45;0.45;;;;;;;;;;6260293;22;20079;-87
2023/12/18 20:27:18;;;;;;;0.30;0.30;;;;;;;;;;6286817;22;20412;-86
2023/12/18 20:29:44;;;;;;;0.30;0.30;;;;;;;;;;6286320;22;20091;-88
2023/12/18 20:32:11;;;;;;;0.40;0.40;;;;;;;;;;6260388;22;20015;-85
2023/12/18 20:34:37;;;;;;;0.40;0.40;;;;;;;;;;6290888;22;20104;-88
2023/12/18 20:37:03;;;;;;;0.30;0.30;;;;;;;;;;6288221;22;20051;-86
2023/12/18 20:39:41;;;;;;;0.30;0.30;;;;;;;;;;6271140;22;20016;-86
2023/12/18 20:42:12;;;;;;;0.30;0.30;;;;;;;;;;6278626;22;20003;-84
2023/12/18 20:44:38;;;;;;;0.40;0.40;;;;;;;;;;6291301;22;20090;-83
2023/12/18 20:47:05;;;;;;;0.35;0.35;;;;;;;;;;6261943;22;20016;-86
2023/12/18 20:59:54;;;;;;;0.40;0.40;;;;;;;;;;6244932;22;20027;-89
2023/12/18 21:02:20;;;;;;;0.38;0.38;;;;;;;;;;6234734;22;20078;-86
2023/12/18 21:04:46;;;;;;;0.40;0.40;;;;;;;;;;6235945;22;20131;-85
2023/12/18 21:07:37;;;;;;;0.40;0.40;;;;;;;;;;6276794;22;20003;-84
2023/12/18 21:10:07;;;;;;;0.40;0.40;;;;;;;;;;6265862;22;20004;-86
2023/12/18 21:15:18;;;;;;;0.30;0.30;;;;;;;;;;6263472;22;20024;-86
2023/12/18 21:17:44;;;;;;;0.30;0.30;;;;;;;;;;6260767;22;20071;-86
2023/12/18 21:20:18;;;;;;;0.40;0.40;;;;;;;;;;6235894;22;20069;-86
2023/12/18 21:22:44;;;;;;;0.30;0.30;;;;;;;;;;6236717;22;20065;-84
2023/12/18 21:25:12;;;;;;;0.40;0.40;;;;;;;;;;6261431;22;20261;-85
2023/12/18 21:27:49;;;;;;;0.40;0.40;;;;;;;;;;6303331;22;20031;-86
2023/12/18 21:30:16;;;;;;;0.40;0.40;;;;;;;;;;6252546;22;20050;-86
2023/12/18 21:32:42;;;;;;;0.40;0.40;;;;;;;;;;6261711;22;20436;-85
2023/12/18 21:35:11;;;;;;;0.73;0.73;;;;;;;;;;6237761;22;20069;-86
2023/12/18 21:37:54;;;;;;;0.82;0.82;;;;;;;;;;6250967;22;20010;-86
2023/12/18 21:40:42;;;;;;;0.30;0.30;;;;;;;;;;6291798;22;20015;-86
2023/12/18 21:47:20;;;;;;;0.40;0.40;;;;;;;;;;6308713;22;20002;-85
2023/12/18 21:55:13;;;;;;;0.40;0.40;;;;;;;;;;6261000;22;20028;-86
2023/12/18 21:57:39;;;;;;;0.40;0.40;;;;;;;;;;6258310;23;20066;-85
2023/12/18 22:00:06;;;;;;;0.40;0.40;;;;;;;;;;6232941;23;20016;-86
2023/12/18 22:02:32;;;;;;;0.40;0.40;;;;;;;;;;6231898;23;20019;-86
2023/12/18 22:05:15;;;;;;;0.40;0.40;;;;;;;;;;6231994;23;20103;-87
2023/12/18 22:08:17;;;;;;;0.30;0.30;;;;;;;;;;6260094;23;20041;-85
2023/12/18 22:10:43;;;;;;;0.40;0.40;;;;;;;;;;6237315;23;20048;-85
2023/12/18 22:13:17;;;;;;;0.40;0.40;;;;;;;;;;6233914;23;20439;-84
2023/12/18 22:15:55;;;;;;;0.30;0.30;;;;;;;;;;6262329;22;20016;-86
2023/12/18 22:18:34;;;;;;;0.40;0.40;;;;;;;;;;6248574;22;20027;-86
2023/12/18 22:21:00;;;;;;;0.40;0.40;;;;;;;;;;6260583;23;20031;-86
2023/12/18 22:23:36;;;;;;;0.30;0.30;;;;;;;;;;6266606;22;20004;-85
2023/12/18 22:26:21;;;;;;;0.40;0.40;;;;;;;;;;6274832;22;20020;-86
2023/12/18 22:28:52;;;;;;;0.30;0.30;;;;;;;;;;6271545;22;20063;-85
2023/12/18 22:31:26;;;;;;;0.30;0.30;;;;;;;;;;6235642;22;20024;-85
2023/12/18 22:33:59;;;;;;;0.40;0.40;;;;;;;;;;6264048;22;20020;-87
2023/12/18 22:36:26;;;;;;;0.38;0.38;;;;;;;;;;6240727;23;20012;-86
2023/12/18 22:39:11;;;;;;;0.30;0.30;;;;;;;;;;6270086;22;20046;-85
2023/12/18 22:45:00;;;;;;;0.30;0.30;;;;;;;;;;6271459;23;20022;-84
2023/12/18 22:55:14;;;;;;;0.32;0.32;;;;;;;;;;6248276;22;20035;-84
2023/12/18 22:57:40;;;;;;;0.40;0.40;;;;;;;;;;6237807;22;20000;-85
2023/12/18 23:00:10;;;;;;;0.30;0.30;;;;;;;;;;6232188;23;20019;-83
2023/12/18 23:02:40;;;;;;;0.35;0.35;;;;;;;;;;6234870;23;20042;-86
2023/12/18 23:05:09;;;;;;;0.40;0.40;;;;;;;;;;6243985;22;20011;-87
2023/12/18 23:07:45;;;;;;;0.40;0.40;;;;;;;;;;6268258;23;20028;-86
2023/12/18 23:13:53;;;;;;;0.40;0.40;;;;;;;;;;6116441;23;20026;-86
2023/12/18 23:16:21;;;;;;;0.40;0.40;;;;;;;;;;6250580;23;20500;-83
2023/12/18 23:18:47;;;;;;;0.40;0.40;;;;;;;;;;6257951;23;20007;-86
2023/12/18 23:21:13;;;;;;;0.38;0.38;;;;;;;;;;6231883;23;20439;-86
2023/12/18 23:23:39;;;;;;;0.40;0.40;;;;;;;;;;6231209;23;20023;-84
2023/12/18 23:26:22;;;;;;;0.30;0.30;;;;;;;;;;6271656;22;20024;-86
2023/12/18 23:28:59;;;;;;;0.40;0.40;;;;;;;;;;6220824;23;20028;-86
2023/12/18 23:31:25;;;;;;;0.40;0.40;;;;;;;;;;6237098;23;20016;-85
2023/12/18 23:33:53;;;;;;;0.40;0.40;;;;;;;;;;6266920;23;20105;-88
2023/12/18 23:36:22;;;;;;;0.40;0.40;;;;;;;;;;6272347;22;20011;-84
2023/12/18 23:38:48;;;;;;;0.40;0.40;;;;;;;;;;6231605;23;20420;-85
2023/12/18 23:41:15;;;;;;;0.30;0.30;;;;;;;;;;6233526;22;20000;-85
2023/12/18 23:50:34;;;;;;;0.30;0.30;;;;;;;;;;6279559;22;20034;-85
2023/12/18 23:58:40;;;;;;;0.40;0.40;;;;;;;;;;6269687;22;20003;-83
